Time;durP1;ratioP1;P1;durP2;ratioP2;P2;SDS_P1;SDS_P2;PMS_P1;PMS_P2;Temp;Humidity;BMP_temperature;BMP_pressure;BME280_temperature;BME280_humidity;BME280_pressure;Samples;Min_cycle;Max_cycle;Signal;HPM_P1;HPM_P2
2023/02/24 00:01:40;;;;;;;7.93;2.22;;;7.80;99.90;;;;;;4179732;28;20033;-80
2023/02/24 00:03:43;;;;;;;11.18;2.58;;;7.80;99.90;;;;;;4178459;28;20506;-81
2023/02/24 00:05:48;;;;;;;7.30;2.17;;;7.80;99.90;;;;;;4179260;28;20086;-81
2023/02/24 00:07:49;;;;;;;9.35;2.30;;;7.80;99.90;;;;;;4178476;28;20080;-81
2023/02/24 00:09:49;;;;;;;8.95;2.38;;;7.80;99.90;;;;;;4180387;28;20025;-81
2023/02/24 00:12:07;;;;;;;12.27;2.67;;;7.80;99.90;;;;;;4177991;28;20057;-81
2023/02/24 00:14:11;;;;;;;11.88;2.70;;;7.80;99.90;;;;;;4190587;28;20025;-81
2023/02/24 00:16:16;;;;;;;8.25;2.42;;;7.80;99.90;;;;;;4196158;28;20058;-81
2023/02/24 00:18:17;;;;;;;9.13;2.00;;;7.70;99.90;;;;;;4186329;28;20090;-81
2023/02/24 00:20:17;;;;;;;8.95;2.72;;;7.70;99.90;;;;;;4169420;28;20453;-81
2023/02/24 00:22:19;;;;;;;9.60;2.30;;;7.70;99.90;;;;;;4167447;28;20060;-81
2023/02/24 00:24:21;;;;;;;11.52;2.45;;;7.70;99.90;;;;;;4191185;28;20029;-81
2023/02/24 00:26:22;;;;;;;8.30;2.22;;;7.60;99.90;;;;;;4195602;28;20052;-81
2023/02/24 00:28:22;;;;;;;6.32;1.85;;;7.60;99.90;;;;;;4178882;28;20040;-81
2023/02/24 00:30:23;;;;;;;4.80;1.70;;;7.60;99.90;;;;;;4178464;28;20041;-81
2023/02/24 00:32:23;;;;;;;7.30;1.77;;;7.50;99.90;;;;;;4180319;28;20107;-80
2023/02/24 00:34:34;;;;;;;8.02;2.33;;;7.50;99.90;;;;;;4184055;28;20028;-78
2023/02/24 00:36:34;;;;;;;6.88;2.17;;;7.50;99.90;;;;;;4195780;28;20098;-81
2023/02/24 00:38:37;;;;;;;6.97;2.42;;;7.50;99.90;;;;;;4184846;28;20037;-81
2023/02/24 00:40:39;;;;;;;6.65;1.75;;;7.40;99.90;;;;;;4179011;28;20040;-82
2023/02/24 00:42:41;;;;;;;8.93;1.88;;;7.40;99.90;;;;;;4176820;28;20066;-81
2023/02/24 00:44:46;;;;;;;8.40;2.22;;;7.40;99.90;;;;;;4188915;28;20391;-82
2023/02/24 00:46:46;;;;;;;7.90;2.00;;;7.30;99.90;;;;;;4195542;28;20074;-81
2023/02/24 00:48:48;;;;;;;8.65;2.30;;;7.30;99.90;;;;;;4183436;28;20037;-81
2023/02/24 00:50:51;;;;;;;5.57;1.77;;;7.20;99.90;;;;;;4194909;28;20045;-81
2023/02/24 00:52:51;;;;;;;8.25;2.53;;;7.20;99.90;;;;;;4191355;28;20040;-81
2023/02/24 00:54:52;;;;;;;8.95;2.38;;;7.20;99.90;;;;;;4180828;28;20037;-81
2023/02/24 00:56:54;;;;;;;13.30;2.53;;;7.20;99.90;;;;;;4178877;28;20029;-81
2023/02/24 00:58:56;;;;;;;11.60;2.78;;;7.10;99.90;;;;;;4178406;28;20033;-79
2023/02/24 01:00:57;;;;;;;16.67;3.03;;;7.10;99.90;;;;;;4178829;28;20066;-80
2023/02/24 01:02:58;;;;;;;15.90;2.83;;;7.10;99.90;;;;;;4176288;28;20029;-81
2023/02/24 01:05:00;;;;;;;10.50;3.00;;;7.10;99.90;;;;;;4175190;28;20025;-82
2023/02/24 01:07:00;;;;;;;14.33;3.23;;;7.10;99.90;;;;;;4167651;28;20033;-81
2023/02/24 01:09:01;;;;;;;10.55;3.13;;;7.00;99.90;;;;;;4171023;28;20121;-81
2023/02/24 01:13:22;;;;;;;11.82;3.17;;;7.00;99.90;;;;;;4173542;28;20049;-81
2023/02/24 01:15:22;;;;;;;14.95;3.30;;;7.00;99.90;;;;;;4173363;28;20037;-82
2023/02/24 01:17:24;;;;;;;15.40;3.20;;;7.00;99.90;;;;;;4172878;28;20037;-81
2023/02/24 01:19:30;;;;;;;13.48;3.67;;;7.00;99.90;;;;;;4168514;28;20033;-79
2023/02/24 01:21:30;;;;;;;11.63;3.10;;;7.00;99.90;;;;;;4170230;28;20091;-82
2023/02/24 01:23:31;;;;;;;10.50;2.63;;;7.00;99.90;;;;;;4173678;28;20029;-81
2023/02/24 01:25:32;;;;;;;19.67;3.60;;;6.90;99.90;;;;;;4174453;28;20044;-81
2023/02/24 01:27:35;;;;;;;12.57;2.75;;;6.90;99.90;;;;;;4170520;28;20041;-81
2023/02/24 01:29:38;;;;;;;14.48;3.33;;;6.90;99.90;;;;;;4173033;28;20122;-81
2023/02/24 01:31:42;;;;;;;13.82;3.10;;;6.80;99.90;;;;;;4170790;28;20048;-81
2023/02/24 01:33:44;;;;;;;17.92;3.33;;;6.80;99.90;;;;;;4176063;28;20133;-82
2023/02/24 01:35:45;;;;;;;17.00;4.23;;;6.80;99.90;;;;;;4171205;28;20108;-81
2023/02/24 01:37:45;;;;;;;15.75;3.20;;;6.80;99.90;;;;;;4170572;28;20472;-81
2023/02/24 01:39:47;;;;;;;24.73;3.60;;;6.80;99.90;;;;;;4170593;28;20061;-81
2023/02/24 01:41:51;;;;;;;15.85;3.83;;;6.80;99.90;;;;;;4173115;28;20068;-81
2023/02/24 01:44:04;;;;;;;19.67;3.22;;;6.80;99.90;;;;;;4177585;28;20031;-81
2023/02/24 01:46:09;;;;;;;29.35;4.82;;;6.80;99.90;;;;;;4171308;28;20040;-82
2023/02/24 01:48:11;;;;;;;15.85;3.45;;;6.70;99.90;;;;;;4170055;28;20129;-82
2023/02/24 01:50:14;;;;;;;21.02;4.45;;;6.70;99.90;;;;;;4177005;28;20068;-81
2023/02/24 01:52:20;;;;;;;23.55;4.82;;;6.70;99.90;;;;;;4179194;28;20114;-82
2023/02/24 01:54:25;;;;;;;23.13;4.38;;;6.60;99.90;;;;;;4187019;28;20430;-75
2023/02/24 01:56:29;;;;;;;18.52;4.10;;;6.50;99.90;;;;;;4187470;28;20422;-81
2023/02/24 01:58:31;;;;;;;27.10;5.25;;;6.40;99.90;;;;;;4190505;28;20044;-81
2023/02/24 02:00:43;;;;;;;26.35;5.03;;;6.40;99.90;;;;;;4177795;28;20079;-81
2023/02/24 02:02:46;;;;;;;20.55;4.57;;;6.30;99.90;;;;;;4179524;28;20492;-82
2023/02/24 02:04:52;;;;;;;16.17;3.90;;;6.30;99.90;;;;;;4187695;28;20032;-81
2023/02/24 02:06:53;;;;;;;17.40;3.67;;;6.30;99.90;;;;;;4176893;28;20053;-81
2023/02/24 02:08:54;;;;;;;13.10;3.33;;;6.40;99.90;;;;;;4178313;28;20029;-81
2023/02/24 02:11:07;;;;;;;17.35;4.30;;;6.40;99.90;;;;;;4177417;28;20051;-75
2023/02/24 02:13:09;;;;;;;17.08;3.90;;;6.40;99.90;;;;;;4179681;28;20068;-81
2023/02/24 02:15:14;;;;;;;23.05;4.55;;;6.50;99.90;;;;;;4186886;28;20400;-81
2023/02/24 02:17:35;;;;;;;18.92;3.55;;;6.40;99.90;;;;;;4183707;28;25125;-81
2023/02/24 02:20:06;;;;;;;19.15;4.07;;;6.50;99.90;;;;;;4176974;28;20063;-81
2023/02/24 02:22:25;;;;;;;21.73;4.07;;;6.50;99.90;;;;;;4180141;28;20422;-82
2023/02/24 02:24:44;;;;;;;13.23;3.38;;;6.50;99.90;;;;;;4178024;28;20471;-81
2023/02/24 02:27:20;;;;;;;14.50;3.72;;;6.50;99.90;;;;;;4188002;28;20049;-82
2023/02/24 02:29:44;;;;;;;17.63;4.35;;;6.50;99.90;;;;;;4142954;28;20339;-81
2023/02/24 02:32:30;;;;;;;11.38;3.60;;;6.40;99.90;;;;;;4175985;28;20537;-81
2023/02/24 02:34:53;;;;;;;12.65;3.47;;;6.40;99.90;;;;;;4172210;28;20049;-82
2023/02/24 02:36:56;;;;;;;11.40;3.60;;;6.40;99.90;;;;;;4181954;28;20033;-81
2023/02/24 02:39:42;;;;;;;13.15;3.35;;;6.40;99.90;;;;;;4182445;28;20032;-81
2023/02/24 02:41:52;;;;;;;12.30;3.28;;;6.40;99.90;;;;;;4166313;28;20062;-81
2023/02/24 02:44:32;;;;;;;12.98;2.80;;;6.40;99.90;;;;;;4183605;28;20064;-81
2023/02/24 02:46:45;;;;;;;7.90;2.97;;;6.40;99.90;;;;;;4159648;28;20061;-81
2023/02/24 02:48:48;;;;;;;;;;;6.40;99.90;;;;;;4178367;28;20033;-82
2023/02/24 02:50:53;;;;;;;12.65;3.35;;;6.40;99.90;;;;;;4176295;28;20295;-82
2023/02/24 02:52:59;;;;;;;5.80;2.30;;;6.40;99.90;;;;;;4182198;28;20098;-81
2023/02/24 02:55:06;;;;;;;12.30;3.00;;;6.40;99.90;;;;;;4188015;28;20442;-81
2023/02/24 02:57:28;;;;;;;10.70;2.85;;;6.30;99.90;;;;;;4176764;28;20106;-82
2023/02/24 02:59:31;;;;;;;8.48;2.83;;;6.40;99.90;;;;;;4176785;28;20537;-81
2023/02/24 03:01:36;;;;;;;14.00;3.88;;;6.30;99.90;;;;;;4176985;28;20550;-82
2023/02/24 03:03:45;;;;;;;16.58;3.40;;;6.30;99.90;;;;;;4184076;28;20033;-81
2023/02/24 03:05:51;;;;;;;9.95;3.05;;;6.30;99.90;;;;;;4175524;28;20053;-81
2023/02/24 03:07:53;;;;;;;12.90;3.00;;;6.30;99.90;;;;;;4176536;28;20521;-81
2023/02/24 03:09:59;;;;;;;13.97;2.70;;;6.30;99.90;;;;;;4177821;28;20044;-82
2023/02/24 03:12:08;;;;;;;13.13;3.25;;;6.30;99.90;;;;;;4176267;28;20063;-81
2023/02/24 03:14:12;;;;;;;9.98;2.90;;;6.30;99.90;;;;;;4187413;28;20484;-81
2023/02/24 03:16:16;;;;;;;8.27;2.92;;;6.30;99.90;;;;;;4175795;28;20113;-82
2023/02/24 03:18:27;;;;;;;8.10;2.55;;;6.30;99.90;;;;;;4172219;28;20029;-82
2023/02/24 03:20:40;;;;;;;13.32;2.70;;;6.30;99.90;;;;;;4173275;28;20109;-81
2023/02/24 03:23:03;;;;;;;13.65;3.25;;;6.30;99.90;;;;;;4180440;28;20036;-81
2023/02/24 03:25:05;;;;;;;15.68;3.72;;;6.30;99.90;;;;;;4176727;28;20471;-82
2023/02/24 03:27:24;;;;;;;10.48;2.97;;;6.30;99.90;;;;;;4176572;28;20095;-82
2023/02/24 03:29:41;;;;;;;10.60;3.13;;;6.30;99.90;;;;;;4177194;28;20037;-81
2023/02/24 03:31:48;;;;;;;11.65;3.03;;;6.30;99.90;;;;;;4176493;28;20071;-82
2023/02/24 03:34:02;;;;;;;17.63;3.75;;;6.30;99.90;;;;;;4178373;28;20032;-82
2023/02/24 03:36:04;;;;;;;19.98;4.13;;;6.30;99.90;;;;;;4159976;28;20041;-82
2023/02/24 03:38:05;;;;;;;13.35;3.20;;;6.30;99.90;;;;;;4164424;28;20036;-82
2023/02/24 03:40:10;;;;;;;10.15;2.45;;;6.30;99.90;;;;;;4174004;28;20029;-81
2023/02/24 03:42:17;;;;;;;8.02;3.10;;;6.30;99.90;;;;;;4169756;28;20077;-82
2023/02/24 03:44:18;;;;;;;8.32;2.80;;;6.30;99.90;;;;;;4175777;28;20059;-82
2023/02/24 03:46:18;;;;;;;14.38;3.65;;;6.40;99.90;;;;;;4170278;28;20117;-82
2023/02/24 03:48:20;;;;;;;12.18;3.15;;;6.40;99.90;;;;;;4173472;28;20040;-82
2023/02/24 03:50:21;;;;;;;11.38;3.20;;;6.40;99.90;;;;;;4166099;28;20112;-82
2023/02/24 03:52:57;;;;;;;11.20;2.92;;;6.40;99.90;;;;;;4169857;28;20049;-81
2023/02/24 03:55:17;;;;;;;10.43;2.80;;;6.40;99.90;;;;;;4171581;28;20041;-81
2023/02/24 03:57:55;;;;;;;11.18;3.47;;;6.40;99.90;;;;;;4168921;28;20064;-82
2023/02/24 04:00:21;;;;;;;10.65;3.15;;;6.40;99.90;;;;;;4170307;28;20043;-77
2023/02/24 04:02:31;;;;;;;8.88;2.88;;;6.40;99.90;;;;;;4170167;28;20036;-81
2023/02/24 04:04:49;;;;;;;12.73;3.65;;;6.40;99.90;;;;;;4167970;28;20037;-82
2023/02/24 04:07:01;;;;;;;15.68;3.25;;;6.40;99.90;;;;;;4167443;28;20065;-82
2023/02/24 04:09:46;;;;;;;7.75;2.70;;;6.40;99.90;;;;;;4170000;28;20063;-82
2023/02/24 04:11:53;;;;;;;14.25;3.45;;;6.40;99.90;;;;;;4164539;28;20044;-82
2023/02/24 04:14:23;;;;;;;16.50;3.20;;;6.40;99.90;;;;;;4171273;28;20041;-81
2023/02/24 04:16:45;;;;;;;11.32;2.80;;;6.40;99.90;;;;;;4168667;28;20033;-82
2023/02/24 04:18:50;;;;;;;11.40;2.97;;;6.40;99.90;;;;;;4172810;28;20041;-81
2023/02/24 04:20:52;;;;;;;11.52;3.75;;;6.40;99.90;;;;;;4166893;28;20116;-82
2023/02/24 04:22:58;;;;;;;9.90;3.03;;;6.40;99.90;;;;;;4171126;28;20045;-81
2023/02/24 04:25:00;;;;;;;12.98;3.75;;;6.40;99.90;;;;;;4174182;28;20056;-81
2023/02/24 04:32:55;;;;;;;16.45;3.70;;;6.40;99.90;;;;;;4177008;28;20131;-81
2023/02/24 04:35:08;;;;;;;14.85;3.58;;;6.40;99.90;;;;;;4175062;28;20028;-76
2023/02/24 04:37:08;;;;;;;;;;;6.40;99.90;;;;;;4170398;28;20055;-82
2023/02/24 04:39:10;;;;;;;12.52;2.90;;;6.40;99.90;;;;;;4177885;28;19909;-81
2023/02/24 04:41:16;;;;;;;9.23;2.97;;;6.40;99.90;;;;;;4179217;28;20057;-82
2023/02/24 04:43:17;;;;;;;9.48;3.33;;;6.40;99.90;;;;;;4187348;28;20043;-82
2023/02/24 04:45:20;;;;;;;12.30;3.30;;;6.50;99.90;;;;;;4176126;28;20034;-82
2023/02/24 04:47:21;;;;;;;14.60;3.97;;;6.50;99.90;;;;;;4179135;28;20472;-73
2023/02/24 04:49:22;;;;;;;13.30;3.55;;;6.40;99.90;;;;;;4173599;28;20033;-80
2023/02/24 04:51:22;;;;;;;12.18;3.08;;;6.50;99.90;;;;;;4181317;28;20045;-81
2023/02/24 04:53:25;;;;;;;13.52;3.60;;;6.40;99.90;;;;;;4178166;28;20041;-81
2023/02/24 04:55:28;;;;;;;13.98;3.35;;;6.50;99.90;;;;;;4182234;28;20546;-80
2023/02/24 04:57:29;;;;;;;;;;;6.40;99.90;;;;;;4191098;28;20371;-81
2023/02/24 04:59:29;;;;;;;10.77;3.42;;;6.40;99.90;;;;;;4185843;28;19948;-81
2023/02/24 05:01:30;;;;;;;12.13;3.75;;;6.40;99.90;;;;;;4185012;28;20493;-81
2023/02/24 05:03:31;;;;;;;16.70;4.00;;;6.40;99.90;;;;;;4187305;28;20086;-81
2023/02/24 05:05:32;;;;;;;14.25;3.47;;;6.40;99.90;;;;;;4180755;28;20522;-81
2023/02/24 05:07:32;;;;;;;20.48;4.13;;;6.40;99.90;;;;;;4178969;28;20045;-82
2023/02/24 05:09:33;;;;;;;12.80;3.92;;;6.40;99.90;;;;;;4174640;28;20124;-82
2023/02/24 05:11:34;;;;;;;16.10;4.22;;;6.40;99.90;;;;;;4174081;28;20045;-82
2023/02/24 05:13:36;;;;;;;10.38;3.55;;;6.40;99.90;;;;;;4176621;28;20048;-81
2023/02/24 05:15:41;;;;;;;10.98;3.20;;;6.40;99.90;;;;;;4174288;28;20087;-81
2023/02/24 05:17:41;;;;;;;11.82;3.50;;;6.40;99.90;;;;;;4172088;28;20455;-81
2023/02/24 05:22:03;;;;;;;18.02;4.05;;;6.40;99.90;;;;;;4174371;28;20090;-81
2023/02/24 05:24:05;;;;;;;17.23;3.30;;;6.40;99.90;;;;;;4177488;28;20037;-82
2023/02/24 05:26:07;;;;;;;13.73;3.83;;;6.40;99.90;;;;;;4174019;28;20060;-81
2023/02/24 05:28:08;;;;;;;10.90;3.50;;;6.40;99.90;;;;;;4175217;28;20040;-82
2023/02/24 05:30:10;;;;;;;17.42;3.85;;;6.40;99.90;;;;;;4171894;28;20392;-81
2023/02/24 05:32:10;;;;;;;17.98;4.63;;;6.40;99.90;;;;;;4175204;28;20450;-82
2023/02/24 05:34:15;;;;;;;14.15;3.47;;;6.40;99.90;;;;;;4176459;28;20037;-82
2023/02/24 05:36:17;;;;;;;10.10;3.20;;;6.40;99.90;;;;;;4171688;28;20065;-82
2023/02/24 05:38:18;;;;;;;13.57;3.67;;;6.40;99.90;;;;;;4174096;28;20044;-81
2023/02/24 05:40:22;;;;;;;9.65;3.08;;;6.40;99.90;;;;;;4177604;28;20037;-82
2023/02/24 05:42:22;;;;;;;8.48;2.83;;;6.40;99.90;;;;;;4173253;28;20059;-78
2023/02/24 05:44:25;;;;;;;11.70;3.85;;;6.40;99.90;;;;;;4175674;28;20029;-80
2023/02/24 05:46:28;;;;;;;11.32;3.33;;;6.40;99.90;;;;;;4169478;28;20472;-81
2023/02/24 05:48:33;;;;;;;10.25;3.60;;;6.40;99.90;;;;;;4172194;28;20041;-81
2023/02/24 05:50:34;;;;;;;12.40;3.78;;;6.50;99.90;;;;;;4174567;28;20068;-82
2023/02/24 05:52:36;;;;;;;15.95;3.63;;;6.40;99.90;;;;;;4180866;28;20046;-81
2023/02/24 05:54:42;;;;;;;12.55;3.58;;;6.40;99.90;;;;;;4185925;28;20036;-82
2023/02/24 05:56:43;;;;;;;15.98;3.53;;;6.40;99.90;;;;;;4181211;28;20391;-82
2023/02/24 05:58:44;;;;;;;18.52;3.30;;;6.30;99.90;;;;;;4178419;28;20079;-81
2023/02/24 06:00:45;;;;;;;15.27;3.17;;;6.20;99.90;;;;;;4182329;28;20033;-82
2023/02/24 06:02:48;;;;;;;10.35;3.35;;;6.10;99.90;;;;;;4173111;28;20529;-82
2023/02/24 06:04:55;;;;;;;10.68;2.90;;;6.10;99.90;;;;;;4181188;28;20499;-81
2023/02/24 06:06:56;;;;;;;7.60;2.78;;;6.10;99.90;;;;;;4181983;28;20044;-76
2023/02/24 06:09:00;;;;;;;7.35;2.40;;;6.10;99.90;;;;;;4176205;28;20380;-81
2023/02/24 06:11:01;;;;;;;7.35;2.40;;;6.10;99.90;;;;;;4181985;28;20056;-81
2023/02/24 06:13:01;;;;;;;9.85;2.78;;;6.10;99.90;;;;;;4181495;28;20037;-81
2023/02/24 06:15:06;;;;;;;10.23;2.60;;;6.10;99.90;;;;;;4170833;28;20164;-81
2023/02/24 06:17:07;;;;;;;9.57;2.20;;;6.10;99.90;;;;;;4174492;28;20399;-82
2023/02/24 06:19:09;;;;;;;10.88;2.63;;;6.10;99.90;;;;;;4174015;28;20123;-81
2023/02/24 06:21:11;;;;;;;11.80;2.63;;;6.20;99.90;;;;;;4169595;28;20084;-81
2023/02/24 06:23:12;;;;;;;8.27;2.35;;;6.10;99.90;;;;;;4166448;28;20048;-81
2023/02/24 06:25:17;;;;;;;9.70;2.78;;;6.10;99.90;;;;;;4175573;28;20119;-81
2023/02/24 06:27:20;;;;;;;9.07;2.70;;;6.20;99.90;;;;;;4179339;28;20032;-81
2023/02/24 06:29:23;;;;;;;4.05;2.03;;;6.20;99.90;;;;;;4185172;28;20037;-71
2023/02/24 06:31:26;;;;;;;7.47;2.63;;;6.20;99.90;;;;;;4173122;28;20041;-70
2023/02/24 06:33:26;;;;;;;7.53;2.70;;;6.20;99.90;;;;;;4172471;28;20083;-72
2023/02/24 06:35:27;;;;;;;13.02;2.95;;;6.20;99.90;;;;;;4172574;28;20041;-69
2023/02/24 06:37:28;;;;;;;8.90;2.80;;;6.30;99.90;;;;;;4181572;28;20108;-76
2023/02/24 06:39:31;;;;;;;12.25;2.92;;;6.30;99.90;;;;;;4175533;28;20084;-77
2023/02/24 06:41:31;;;;;;;7.88;2.58;;;6.30;99.90;;;;;;4172191;28;20053;-76
2023/02/24 06:43:32;;;;;;;12.35;2.72;;;6.30;99.90;;;;;;4188443;28;20049;-77
2023/02/24 06:45:34;;;;;;;8.73;2.42;;;6.30;99.90;;;;;;4176408;28;20048;-77
2023/02/24 06:47:35;;;;;;;8.52;2.28;;;6.30;99.90;;;;;;4181592;28;20121;-77
2023/02/24 06:49:36;;;;;;;8.77;2.55;;;6.30;99.90;;;;;;4181960;28;20556;-77
2023/02/24 06:51:37;;;;;;;12.55;3.42;;;6.30;99.90;;;;;;4183151;28;20047;-76
2023/02/24 06:53:42;;;;;;;11.27;2.90;;;6.40;99.90;;;;;;4173549;28;20083;-76
2023/02/24 06:55:45;;;;;;;8.60;2.83;;;6.30;99.90;;;;;;4179407;28;20143;-76
2023/02/24 06:57:48;;;;;;;12.00;3.40;;;6.30;99.90;;;;;;4164795;28;20040;-76
2023/02/24 06:59:49;;;;;;;11.73;4.25;;;6.30;99.90;;;;;;4169271;28;20037;-76
2023/02/24 07:01:52;;;;;;;12.63;3.20;;;6.20;99.90;;;;;;4164181;28;20484;-77
2023/02/24 07:04:02;;;;;;;8.20;2.55;;;6.20;99.90;;;;;;4166538;28;20063;-76
2023/02/24 07:08:32;;;;;;;9.75;2.60;;;6.30;99.90;;;;;;4146930;28;20042;-76
2023/02/24 07:10:33;;;;;;;10.70;2.50;;;6.30;99.90;;;;;;4166044;28;20045;-76
2023/02/24 07:12:34;;;;;;;11.18;2.28;;;6.30;99.90;;;;;;4164676;28;20057;-75
2023/02/24 07:14:35;;;;;;;12.80;2.50;;;6.20;99.90;;;;;;4163552;28;20443;-76
2023/02/24 07:16:40;;;;;;;11.07;2.40;;;6.20;99.90;;;;;;4162187;28;20042;-75
2023/02/24 07:18:41;;;;;;;11.65;2.78;;;6.20;99.90;;;;;;4166896;28;20067;-76
2023/02/24 07:20:44;;;;;;;7.07;2.00;;;6.20;99.90;;;;;;4164392;28;20036;-76
2023/02/24 07:22:46;;;;;;;6.55;2.05;;;6.20;99.90;;;;;;4164870;28;20065;-76
2023/02/24 07:24:47;;;;;;;9.43;2.30;;;6.20;99.90;;;;;;4163911;28;20115;-75
2023/02/24 07:26:50;;;;;;;8.48;2.25;;;6.20;99.90;;;;;;4167085;28;20049;-76
2023/02/24 07:28:53;;;;;;;10.98;2.22;;;6.20;99.90;;;;;;4166955;28;20447;-76
2023/02/24 07:30:56;;;;;;;8.40;2.05;;;6.20;99.90;;;;;;4163294;28;20055;-75
2023/02/24 07:32:56;;;;;;;9.35;2.55;;;6.20;99.90;;;;;;4163016;28;20079;-73
2023/02/24 07:34:58;;;;;;;6.78;2.15;;;6.20;99.90;;;;;;4163705;28;20056;-74
2023/02/24 07:37:02;;;;;;;7.70;2.30;;;6.10;99.90;;;;;;4165013;28;20045;-76
2023/02/24 07:39:04;;;;;;;9.32;2.47;;;6.10;99.90;;;;;;4160897;28;20169;-77
2023/02/24 07:41:06;;;;;;;7.93;2.22;;;6.10;99.90;;;;;;4163836;28;20053;-76
2023/02/24 07:43:07;;;;;;;6.18;1.88;;;6.10;99.90;;;;;;4163767;28;20037;-76
2023/02/24 07:45:08;;;;;;;8.55;2.70;;;6.00;99.90;;;;;;4159639;28;20041;-76
2023/02/24 07:47:08;;;;;;;8.23;2.13;;;6.10;99.90;;;;;;4160740;28;20758;-77
2023/02/24 07:49:12;;;;;;;13.60;2.30;;;6.10;99.90;;;;;;4163768;28;20086;-77
2023/02/24 07:51:15;;;;;;;10.90;2.47;;;6.10;99.90;;;;;;4162372;28;20056;-77
2023/02/24 07:53:17;;;;;;;18.85;2.95;;;6.10;99.90;;;;;;4164791;28;20071;-77
2023/02/24 07:55:18;;;;;;;5.97;1.60;;;6.10;99.90;;;;;;4166378;28;20029;-77
2023/02/24 07:57:18;;;;;;;11.50;2.58;;;6.10;99.90;;;;;;4169435;28;20037;-77
2023/02/24 07:59:20;;;;;;;8.63;2.20;;;6.10;99.90;;;;;;4163233;28;20146;-77
2023/02/24 08:01:26;;;;;;;12.43;2.45;;;6.10;99.90;;;;;;4164784;28;20110;-76
2023/02/24 08:03:28;;;;;;;8.88;1.83;;;6.10;99.90;;;;;;4164807;28;20059;-75
2023/02/24 08:05:29;;;;;;;11.63;2.75;;;6.10;99.90;;;;;;4167774;28;20055;-76
2023/02/24 08:07:29;;;;;;;13.52;2.55;;;6.00;99.90;;;;;;4169491;28;20143;-76
2023/02/24 08:11:51;;;;;;;8.98;2.30;;;6.00;99.90;;;;;;4163280;28;20133;-76
2023/02/24 08:13:52;;;;;;;12.27;2.67;;;6.00;99.90;;;;;;4169297;28;20047;-77
2023/02/24 08:15:56;;;;;;;10.85;2.30;;;6.00;99.90;;;;;;4169253;28;20042;-77
2023/02/24 08:17:59;;;;;;;12.88;2.50;;;5.90;99.90;;;;;;4171003;28;20061;-75
2023/02/24 08:22:36;;;;;;;;;;;6.00;99.90;;;;;;4168569;28;20041;-77
2023/02/24 08:24:34;;;;;;;9.30;1.60;;;5.90;99.90;;;;;;4167765;28;19908;-76
2023/02/24 08:26:43;;;;;;;12.02;2.58;;;6.00;99.90;;;;;;4168592;28;20044;-77
2023/02/24 08:28:44;;;;;;;9.80;2.30;;;6.00;99.90;;;;;;4170701;28;20041;-76
2023/02/24 08:30:44;;;;;;;10.68;2.35;;;6.00;99.90;;;;;;4166144;28;20527;-76
2023/02/24 08:32:45;;;;;;;8.55;2.20;;;6.00;99.90;;;;;;4167694;28;20044;-77
2023/02/24 08:34:48;;;;;;;6.72;1.98;;;6.00;99.90;;;;;;4167871;28;20041;-76
2023/02/24 08:36:54;;;;;;;11.73;2.30;;;6.00;99.90;;;;;;4166644;28;20090;-77
2023/02/24 08:38:58;;;;;;;15.07;2.72;;;6.10;99.90;;;;;;4164599;28;20041;-76
2023/02/24 08:41:03;;;;;;;8.63;1.85;;;6.00;99.90;;;;;;4164411;28;20534;-76
2023/02/24 08:43:15;;;;;;;16.02;3.22;;;6.10;99.90;;;;;;4166685;28;20479;-77
2023/02/24 08:45:15;;;;;;;8.02;2.30;;;6.10;99.90;;;;;;4166895;28;20495;-76
2023/02/24 08:47:19;;;;;;;11.57;1.83;;;6.00;99.90;;;;;;4168280;28;20045;-76
2023/02/24 08:49:23;;;;;;;7.43;2.25;;;6.10;99.90;;;;;;4168168;28;20028;-76
2023/02/24 08:51:33;;;;;;;8.82;2.28;;;6.10;99.90;;;;;;4166060;28;20652;-77
2023/02/24 08:53:39;;;;;;;7.90;2.03;;;6.10;99.90;;;;;;4164539;28;20124;-77
2023/02/24 08:55:39;;;;;;;11.90;2.58;;;6.10;99.90;;;;;;4166814;28;20083;-77
2023/02/24 08:57:50;;;;;;;9.95;2.03;;;6.10;99.90;;;;;;4165401;28;20376;-77
2023/02/24 08:59:56;;;;;;;13.88;2.40;;;6.10;99.90;;;;;;4168033;28;20041;-79
2023/02/24 09:04:18;;;;;;;12.40;2.58;;;6.10;99.90;;;;;;4163226;28;20033;-76
2023/02/24 09:06:26;;;;;;;11.65;2.42;;;6.10;99.90;;;;;;4166680;28;20029;-76
2023/02/24 09:08:31;;;;;;;14.52;3.08;;;6.10;99.90;;;;;;4165621;28;20069;-75
2023/02/24 09:10:32;;;;;;;12.10;3.10;;;6.10;99.90;;;;;;4170038;28;20033;-76
2023/02/24 09:12:39;;;;;;;18.25;3.30;;;6.10;99.90;;;;;;4166470;28;20125;-77
2023/02/24 09:14:41;;;;;;;11.45;2.72;;;6.00;99.90;;;;;;4171101;28;20668;-77
2023/02/24 09:17:02;;;;;;;19.10;3.33;;;6.10;99.90;;;;;;4167265;28;20103;-75
2023/02/24 09:19:39;;;;;;;7.28;2.80;;;6.10;99.90;;;;;;4168635;28;20439;-76
2023/02/24 09:23:49;;;;;;;11.23;2.30;;;6.10;99.90;;;;;;4166807;28;20468;-77
2023/02/24 09:25:49;;;;;;;8.70;2.15;;;6.20;99.90;;;;;;4173317;28;20047;-76
2023/02/24 09:28:06;;;;;;;11.60;3.17;;;6.20;99.90;;;;;;4170162;28;20041;-76
2023/02/24 09:30:24;;;;;;;12.30;2.67;;;6.10;99.90;;;;;;4168642;28;20041;-77
2023/02/24 09:32:27;;;;;;;11.23;2.80;;;6.10;99.90;;;;;;4165718;28;20041;-77
2023/02/24 09:34:29;;;;;;;16.65;3.28;;;6.10;99.90;;;;;;4165183;28;20037;-76
2023/02/24 09:36:29;;;;;;;11.52;2.67;;;6.20;99.90;;;;;;4167353;28;20071;-76
2023/02/24 09:40:49;;;;;;;12.18;2.72;;;6.20;99.90;;;;;;4168517;28;20067;-76
2023/02/24 09:42:57;;;;;;;12.55;3.05;;;6.20;99.90;;;;;;4170664;28;20029;-77
2023/02/24 09:45:10;;;;;;;12.80;2.47;;;6.20;99.90;;;;;;4168106;28;20047;-74
2023/02/24 09:48:09;;;;;;;13.90;2.88;;;6.20;99.90;;;;;;4167290;28;20029;-77
2023/02/24 09:50:16;;;;;;;12.80;2.58;;;6.20;99.90;;;;;;4170007;28;20033;-75
2023/02/24 09:52:18;;;;;;;13.35;2.58;;;6.20;99.90;;;;;;4169785;28;20124;-75
2023/02/24 09:54:23;;;;;;;12.10;2.28;;;6.20;99.90;;;;;;4169018;28;20032;-76
2023/02/24 09:56:41;;;;;;;11.05;2.35;;;6.30;99.90;;;;;;4170592;28;20037;-76
2023/02/24 09:59:09;;;;;;;11.02;2.60;;;6.20;99.90;;;;;;4168252;28;20430;-75
2023/02/24 10:01:19;;;;;;;8.88;2.28;;;6.20;99.90;;;;;;4163570;28;20043;-76
2023/02/24 10:03:46;;;;;;;13.07;2.40;;;6.20;99.90;;;;;;4169250;28;20055;-75
2023/02/24 10:06:11;;;;;;;11.68;2.17;;;6.30;99.90;;;;;;4168992;28;20043;-75
2023/02/24 10:08:24;;;;;;;11.02;2.78;;;6.20;99.90;;;;;;4168916;28;20041;-76
2023/02/24 10:10:34;;;;;;;9.10;2.65;;;6.20;99.90;;;;;;4169366;28;21130;-75
2023/02/24 10:12:38;;;;;;;10.50;2.10;;;6.20;99.90;;;;;;4165482;28;20068;-75
2023/02/24 10:15:19;;;;;;;12.70;2.40;;;6.20;99.90;;;;;;4167058;28;20129;-75
2023/02/24 10:17:22;;;;;;;15.90;2.95;;;6.30;99.90;;;;;;4166914;28;20061;-75
2023/02/24 10:19:29;;;;;;;13.25;2.45;;;6.30;99.90;;;;;;4170141;28;20042;-76
2023/02/24 10:21:48;;;;;;;11.00;2.45;;;6.30;99.90;;;;;;4163040;28;20059;-74
2023/02/24 10:24:15;;;;;;;10.57;2.38;;;6.30;99.90;;;;;;4168373;28;20029;-75
2023/02/24 10:26:44;;;;;;;12.68;2.63;;;6.30;99.90;;;;;;4128391;28;20508;-75
2023/02/24 10:29:21;;;;;;;12.40;2.65;;;6.30;99.90;;;;;;4169547;28;20044;-75
2023/02/24 10:31:56;;;;;;;10.25;2.70;;;6.40;99.90;;;;;;4153759;28;20049;-75
2023/02/24 10:34:05;;;;;;;13.38;2.72;;;6.30;99.90;;;;;;4163027;28;20450;-75
2023/02/24 10:36:08;;;;;;;15.27;2.80;;;6.30;99.90;;;;;;4168017;28;20052;-75
2023/02/24 10:38:09;;;;;;;12.77;3.22;;;6.30;99.90;;;;;;4169527;28;20057;-75
2023/02/24 10:40:12;;;;;;;16.13;3.70;;;6.30;99.90;;;;;;4168553;28;20504;-75
2023/02/24 10:42:23;;;;;;;12.88;2.95;;;6.30;99.90;;;;;;4167792;28;20037;-75
2023/02/24 10:44:34;;;;;;;12.02;3.05;;;6.30;99.90;;;;;;4165259;28;20130;-75
2023/02/24 10:46:35;;;;;;;11.10;3.22;;;6.20;99.90;;;;;;4166367;28;20046;-75
2023/02/24 10:48:38;;;;;;;11.73;3.10;;;6.20;99.90;;;;;;4166636;28;20041;-76
2023/02/24 10:50:44;;;;;;;11.10;3.03;;;6.30;99.90;;;;;;4169307;28;20037;-75
2023/02/24 10:55:07;;;;;;;15.80;3.35;;;6.20;99.90;;;;;;4168371;28;20091;-75
2023/02/24 10:57:17;;;;;;;10.68;3.08;;;6.20;99.90;;;;;;4162716;28;20052;-76
2023/02/24 11:01:45;;;;;;;14.80;3.63;;;6.10;99.90;;;;;;4164896;28;20542;-76
2023/02/24 11:04:01;;;;;;;10.63;3.70;;;6.10;99.90;;;;;;4167269;28;20045;-76
2023/02/24 11:08:53;;;;;;;10.80;3.47;;;6.10;99.90;;;;;;4166292;28;20048;-76
2023/02/24 11:11:05;;;;;;;13.93;3.58;;;6.10;99.90;;;;;;4168702;28;20098;-77
2023/02/24 11:18:09;;;;;;;11.30;3.58;;;6.10;99.90;;;;;;4165006;28;20039;-77
2023/02/24 11:20:22;;;;;;;11.98;3.00;;;6.10;99.90;;;;;;4168093;28;20040;-77
2023/02/24 11:22:34;;;;;;;18.60;4.07;;;6.10;99.90;;;;;;4167264;28;20045;-78
2023/02/24 11:24:37;;;;;;;11.48;3.33;;;6.00;99.90;;;;;;4171837;28;20094;-79
2023/02/24 11:26:40;;;;;;;;;;;6.00;99.90;;;;;;4167111;28;20064;-78
2023/02/24 11:28:58;;;;;;;14.38;3.45;;;6.00;99.90;;;;;;4171367;28;19957;-78
2023/02/24 11:31:07;;;;;;;28.52;5.25;;;6.00;99.90;;;;;;4170650;28;20052;-77
2023/02/24 11:33:19;;;;;;;15.60;4.68;;;5.90;99.90;;;;;;4172413;28;20044;-78
2023/02/24 11:35:36;;;;;;;15.27;4.18;;;5.90;99.90;;;;;;4166925;28;20032;-78
2023/02/24 11:37:41;;;;;;;27.67;6.65;;;5.90;99.90;;;;;;4170846;28;20491;-78
2023/02/24 11:39:54;;;;;;;13.73;4.30;;;5.90;99.90;;;;;;4170399;28;20033;-77